Time;durP1;ratioP1;P1;durP2;ratioP2;P2;SDS_P1;SDS_P2;PMS_P1;PMS_P2;Temp;Humidity;BMP_temperature;BMP_pressure;BME280_temperature;BME280_humidity;BME280_pressure;Samples;Min_cycle;Max_cycle;Signal;HPM_P1;HPM_P2
2022/03/05 00:02:12;;;;;;;29.65;19.27;;;;;;;;;;5016006;28;20026;-80
2022/03/05 00:04:38;;;;;;;25.75;18.50;;;;;;;;;;5015688;28;20021;-81
2022/03/05 00:07:04;;;;;;;25.60;17.17;;;;;;;;;;5015942;28;20041;-80
2022/03/05 00:09:30;;;;;;;23.70;17.27;;;;;;;;;;5016011;28;20018;-80
2022/03/05 00:11:56;;;;;;;26.98;17.40;;;;;;;;;;5015862;28;20029;-80
2022/03/05 00:14:22;;;;;;;26.35;18.85;;;;;;;;;;5015720;28;20528;-80
2022/03/05 00:16:48;;;;;;;58.97;34.40;;;;;;;;;;5015582;28;20378;-80
2022/03/05 00:19:14;;;;;;;58.75;33.55;;;;;;;;;;5011177;28;20026;-80
2022/03/05 00:21:41;;;;;;;41.78;26.83;;;;;;;;;;5004940;28;20053;-80
2022/03/05 00:24:07;;;;;;;38.80;25.15;;;;;;;;;;4988077;28;20030;-80
2022/03/05 00:26:33;;;;;;;46.72;30.52;;;;;;;;;;5005191;28;20022;-80
2022/03/05 00:28:59;;;;;;;37.70;25.00;;;;;;;;;;5006797;28;20041;-80
2022/03/05 00:31:25;;;;;;;34.15;23.23;;;;;;;;;;5005566;28;20029;-80
2022/03/05 00:33:51;;;;;;;32.67;21.88;;;;;;;;;;5003448;28;20030;-80
2022/03/05 00:36:25;;;;;;;32.83;20.50;;;;;;;;;;5001145;28;20030;-80
2022/03/05 00:38:51;;;;;;;33.47;22.23;;;;;;;;;;4987960;28;20499;-80
2022/03/05 00:41:17;;;;;;;39.17;24.85;;;;;;;;;;4986561;28;20040;-80
2022/03/05 00:43:43;;;;;;;43.38;27.70;;;;;;;;;;5001376;28;20050;-80
2022/03/05 00:46:09;;;;;;;44.50;31.38;;;;;;;;;;5000956;28;20116;-80
2022/03/05 00:48:35;;;;;;;35.10;24.02;;;;;;;;;;5003226;28;20067;-80
2022/03/05 00:51:16;;;;;;;35.05;24.52;;;;;;;;;;5001897;28;20022;-79
2022/03/05 00:53:46;;;;;;;33.67;22.35;;;;;;;;;;4984579;28;20049;-81
2022/03/05 00:56:12;;;;;;;40.88;26.13;;;;;;;;;;5005346;28;20026;-80
2022/03/05 00:58:38;;;;;;;36.13;25.20;;;;;;;;;;5005746;28;20354;-80
2022/03/05 01:01:04;;;;;;;31.65;24.90;;;;;;;;;;5004983;28;20026;-80
2022/03/05 01:03:30;;;;;;;34.75;24.40;;;;;;;;;;5005208;28;20026;-80
2022/03/05 01:05:57;;;;;;;30.63;22.38;;;;;;;;;;5014770;28;20092;-81
2022/03/05 01:08:24;;;;;;;29.02;21.75;;;;;;;;;;5014933;28;20470;-80
2022/03/05 01:10:50;;;;;;;27.15;19.75;;;;;;;;;;5014787;28;20425;-80
2022/03/05 01:13:16;;;;;;;25.67;20.00;;;;;;;;;;5014412;28;20045;-80
2022/03/05 01:15:42;;;;;;;28.48;19.77;;;;;;;;;;5014864;28;20037;-80
2022/03/05 01:18:08;;;;;;;29.50;22.30;;;;;;;;;;5014693;28;20026;-80
2022/03/05 01:20:34;;;;;;;31.92;22.85;;;;;;;;;;5014671;28;20454;-80
2022/03/05 01:23:00;;;;;;;32.15;21.65;;;;;;;;;;5014264;28;20105;-80
2022/03/05 01:25:26;;;;;;;26.77;19.30;;;;;;;;;;5014375;28;20164;-80
2022/03/05 01:27:52;;;;;;;28.13;18.75;;;;;;;;;;4996812;28;20385;-80
2022/03/05 01:30:19;;;;;;;28.10;18.77;;;;;;;;;;5014431;28;20076;-80
2022/03/05 01:32:45;;;;;;;29.13;20.17;;;;;;;;;;5014472;28;20374;-80
2022/03/05 01:35:11;;;;;;;29.38;20.58;;;;;;;;;;5014117;28;20032;-81
2022/03/05 01:37:37;;;;;;;30.67;21.10;;;;;;;;;;4996821;28;20080;-80
2022/03/05 01:40:04;;;;;;;29.90;20.77;;;;;;;;;;5013996;28;20477;-80
2022/03/05 01:42:30;;;;;;;28.75;20.83;;;;;;;;;;5014242;28;20022;-80
2022/03/05 01:44:56;;;;;;;25.27;18.50;;;;;;;;;;5014086;28;20053;-80
2022/03/05 01:47:22;;;;;;;24.27;18.27;;;;;;;;;;5013960;28;20021;-80
2022/03/05 01:49:48;;;;;;;28.02;20.27;;;;;;;;;;5014278;28;20113;-80
2022/03/05 01:52:15;;;;;;;28.65;19.75;;;;;;;;;;5013960;28;20035;-80
2022/03/05 01:54:41;;;;;;;26.20;18.52;;;;;;;;;;5014045;28;20481;-80
2022/03/05 01:57:07;;;;;;;23.98;16.88;;;;;;;;;;5013954;28;20373;-80
2022/03/05 01:59:34;;;;;;;23.48;15.85;;;;;;;;;;5014150;28;20041;-80
2022/03/05 02:02:00;;;;;;;23.77;16.65;;;;;;;;;;5013943;28;20022;-81
2022/03/05 02:04:26;;;;;;;23.90;16.55;;;;;;;;;;5013840;28;20382;-80
2022/03/05 02:06:55;;;;;;;20.40;14.90;;;;;;;;;;5013899;28;20116;-80
2022/03/05 02:09:21;;;;;;;24.48;15.85;;;;;;;;;;5013516;28;20022;-80
2022/03/05 02:11:48;;;;;;;22.25;15.23;;;;;;;;;;5013517;28;20025;-80
2022/03/05 02:14:17;;;;;;;25.48;18.25;;;;;;;;;;5013003;28;20053;-80
2022/03/05 02:16:44;;;;;;;21.13;17.50;;;;;;;;;;5013622;28;20033;-80
2022/03/05 02:19:17;;;;;;;22.92;16.55;;;;;;;;;;5013463;28;20389;-79
2022/03/05 02:21:45;;;;;;;27.00;19.77;;;;;;;;;;5013566;28;20018;-79
2022/03/05 02:24:11;;;;;;;22.17;17.52;;;;;;;;;;5002982;28;20026;-80
2022/03/05 02:26:39;;;;;;;23.02;17.08;;;;;;;;;;5004034;28;20034;-79
2022/03/05 02:29:05;;;;;;;23.95;17.80;;;;;;;;;;4999621;28;20026;-78
2022/03/05 02:31:31;;;;;;;23.15;16.80;;;;;;;;;;5002859;28;20054;-79
2022/03/05 02:34:00;;;;;;;22.67;17.63;;;;;;;;;;5003854;28;20022;-79
2022/03/05 02:36:26;;;;;;;28.48;19.98;;;;;;;;;;4993666;28;20092;-78
2022/03/05 02:38:53;;;;;;;28.83;20.35;;;;;;;;;;4993604;28;20443;-78
2022/03/05 02:41:20;;;;;;;26.80;19.38;;;;;;;;;;4993257;28;20029;-78
2022/03/05 02:43:46;;;;;;;25.95;19.15;;;;;;;;;;4993552;28;20393;-78
2022/03/05 02:46:12;;;;;;;25.48;19.63;;;;;;;;;;4993114;28;20077;-78
2022/03/05 02:48:39;;;;;;;28.73;18.88;;;;;;;;;;4993485;28;20110;-78
2022/03/05 02:51:05;;;;;;;26.17;19.27;;;;;;;;;;4993294;28;20023;-78
2022/03/05 02:53:31;;;;;;;25.98;19.98;;;;;;;;;;4993314;28;20022;-78
2022/03/05 02:55:57;;;;;;;28.10;20.20;;;;;;;;;;4993443;28;20065;-78
2022/03/05 02:58:23;;;;;;;27.67;20.25;;;;;;;;;;4993109;28;20467;-78
2022/03/05 03:00:50;;;;;;;27.92;21.23;;;;;;;;;;4993265;28;20081;-78
2022/03/05 03:03:16;;;;;;;29.60;21.85;;;;;;;;;;4993015;28;20367;-78
2022/03/05 03:05:43;;;;;;;26.77;20.98;;;;;;;;;;4993167;28;20026;-78
2022/03/05 03:08:09;;;;;;;22.30;17.65;;;;;;;;;;4993294;28;20030;-78
2022/03/05 03:10:35;;;;;;;25.17;18.17;;;;;;;;;;4992997;28;20076;-78
2022/03/05 03:13:01;;;;;;;25.70;19.80;;;;;;;;;;4987062;28;20466;-78
2022/03/05 03:15:27;;;;;;;24.58;18.90;;;;;;;;;;5012554;28;20038;-78
2022/03/05 03:17:53;;;;;;;27.48;19.45;;;;;;;;;;5012665;28;20029;-79
2022/03/05 03:20:21;;;;;;;29.35;19.33;;;;;;;;;;5012538;28;20034;-79
2022/03/05 03:22:47;;;;;;;25.05;18.13;;;;;;;;;;5012777;28;20109;-79
2022/03/05 03:25:13;;;;;;;30.25;20.15;;;;;;;;;;5012498;28;20029;-79
2022/03/05 03:27:40;;;;;;;43.90;26.52;;;;;;;;;;5014830;28;20030;-79
2022/03/05 03:30:06;;;;;;;32.05;21.95;;;;;;;;;;5016764;28;20040;-79
2022/03/05 03:32:33;;;;;;;29.55;20.05;;;;;;;;;;5016529;28;20025;-79
2022/03/05 03:34:59;;;;;;;24.88;20.08;;;;;;;;;;5016284;28;20034;-79
2022/03/05 03:37:29;;;;;;;31.80;20.55;;;;;;;;;;5015923;28;20022;-79
2022/03/05 03:40:00;;;;;;;27.92;19.80;;;;;;;;;;5016082;28;20046;-79
2022/03/05 03:42:27;;;;;;;28.45;20.30;;;;;;;;;;5013217;28;20049;-79
2022/03/05 03:44:53;;;;;;;29.95;21.17;;;;;;;;;;5015925;28;20057;-79
2022/03/05 03:47:19;;;;;;;31.17;20.63;;;;;;;;;;5015740;28;20121;-78
2022/03/05 03:49:46;;;;;;;30.67;22.30;;;;;;;;;;4998226;28;20029;-79
2022/03/05 03:52:15;;;;;;;31.65;21.58;;;;;;;;;;5015876;28;20018;-79
2022/03/05 03:54:42;;;;;;;31.05;20.38;;;;;;;;;;5015700;28;20508;-78
2022/03/05 03:57:09;;;;;;;28.15;19.15;;;;;;;;;;5015796;28;20023;-79
2022/03/05 03:59:35;;;;;;;27.38;18.13;;;;;;;;;;5015410;28;20516;-80
2022/03/05 04:02:02;;;;;;;27.10;19.85;;;;;;;;;;5015621;28;20116;-79
2022/03/05 04:04:28;;;;;;;26.20;19.40;;;;;;;;;;5015485;28;20014;-79
2022/03/05 04:09:39;;;;;;;;;;;;;;;;;;5016398;28;20619;-80
2022/03/05 04:12:06;;;;;;;22.98;16.98;;;;;;;;;;5015924;28;19956;-79
2022/03/05 04:14:32;;;;;;;26.15;18.40;;;;;;;;;;5015692;28;20050;-79
2022/03/05 04:16:58;;;;;;;25.48;17.08;;;;;;;;;;5015510;28;20030;-80
2022/03/05 04:19:24;;;;;;;26.73;18.15;;;;;;;;;;5015166;28;20036;-79
2022/03/05 04:21:50;;;;;;;25.00;18.05;;;;;;;;;;5015595;28;20022;-80
2022/03/05 04:24:16;;;;;;;22.20;16.30;;;;;;;;;;5015695;28;20029;-80
2022/03/05 04:26:42;;;;;;;28.13;16.45;;;;;;;;;;5015645;28;20030;-79
2022/03/05 04:29:08;;;;;;;25.50;17.45;;;;;;;;;;5015654;28;20101;-79
2022/03/05 04:31:35;;;;;;;25.83;17.25;;;;;;;;;;5015456;28;20101;-79
2022/03/05 04:34:01;;;;;;;26.33;18.40;;;;;;;;;;5015562;28;20022;-79
2022/03/05 04:36:27;;;;;;;25.08;18.98;;;;;;;;;;5015382;28;20437;-79
2022/03/05 04:38:53;;;;;;;29.00;20.23;;;;;;;;;;5015223;28;20026;-79
2022/03/05 04:41:19;;;;;;;30.00;19.65;;;;;;;;;;5015406;28;20030;-79
2022/03/05 04:43:47;;;;;;;32.38;21.65;;;;;;;;;;4997706;28;20359;-79
2022/03/05 04:46:13;;;;;;;30.98;21.55;;;;;;;;;;5015217;28;20068;-79
2022/03/05 04:48:39;;;;;;;35.03;25.25;;;;;;;;;;5015114;28;20363;-79
2022/03/05 04:51:05;;;;;;;34.47;22.92;;;;;;;;;;5015170;28;20037;-79
2022/03/05 04:53:31;;;;;;;32.67;23.63;;;;;;;;;;5014898;28;20531;-79
2022/03/05 04:55:57;;;;;;;31.52;22.98;;;;;;;;;;5015083;28;20021;-79
2022/03/05 04:58:23;;;;;;;30.55;22.15;;;;;;;;;;5015003;28;20018;-79
2022/03/05 05:00:49;;;;;;;25.85;20.10;;;;;;;;;;5015000;28;20025;-79
2022/03/05 05:03:16;;;;;;;25.95;19.88;;;;;;;;;;4997691;28;20030;-80
2022/03/05 05:05:42;;;;;;;32.03;20.48;;;;;;;;;;5014721;28;20465;-80
2022/03/05 05:08:08;;;;;;;30.05;20.02;;;;;;;;;;5015027;28;20484;-80
2022/03/05 05:10:34;;;;;;;28.42;20.95;;;;;;;;;;5014639;28;20026;-81
2022/03/05 05:13:00;;;;;;;29.35;19.80;;;;;;;;;;5014620;28;20061;-80
2022/03/05 05:15:26;;;;;;;31.70;20.42;;;;;;;;;;5014788;28;20030;-80
2022/03/05 05:17:52;;;;;;;30.40;20.30;;;;;;;;;;5014668;28;20057;-78
2022/03/05 05:20:18;;;;;;;30.33;22.63;;;;;;;;;;5014689;28;20469;-80
2022/03/05 05:22:45;;;;;;;31.88;22.35;;;;;;;;;;5014513;28;20029;-80
2022/03/05 05:25:13;;;;;;;35.05;22.42;;;;;;;;;;5014574;28;20026;-80
2022/03/05 05:27:40;;;;;;;38.33;23.88;;;;;;;;;;5014415;28;20370;-80
2022/03/05 05:30:07;;;;;;;33.55;22.77;;;;;;;;;;5014507;28;20049;-80
2022/03/05 05:32:33;;;;;;;35.38;23.55;;;;;;;;;;5014465;28;20413;-80
2022/03/05 05:34:59;;;;;;;32.33;22.65;;;;;;;;;;5014436;28;20469;-80
2022/03/05 05:37:25;;;;;;;33.95;23.63;;;;;;;;;;5014496;28;20030;-80
2022/03/05 05:39:51;;;;;;;35.63;24.30;;;;;;;;;;5014101;28;20030;-79
2022/03/05 05:42:18;;;;;;;42.97;27.33;;;;;;;;;;5014546;28;20026;-79
2022/03/05 05:44:44;;;;;;;37.45;26.10;;;;;;;;;;5014101;28;20022;-79
2022/03/05 05:47:10;;;;;;;42.92;27.38;;;;;;;;;;5014434;28;20050;-79
2022/03/05 05:49:36;;;;;;;35.80;24.80;;;;;;;;;;5013397;28;20026;-79
2022/03/05 05:52:03;;;;;;;40.58;24.42;;;;;;;;;;5013933;28;20034;-79
2022/03/05 05:54:29;;;;;;;33.60;23.73;;;;;;;;;;5014068;28;20028;-80
2022/03/05 05:56:56;;;;;;;35.05;22.77;;;;;;;;;;4996282;28;20042;-80
2022/03/05 05:59:22;;;;;;;28.00;18.75;;;;;;;;;;5014019;28;20075;-79
2022/03/05 06:01:48;;;;;;;30.38;21.55;;;;;;;;;;5013814;28;20420;-80
2022/03/05 06:04:14;;;;;;;29.25;19.30;;;;;;;;;;4996453;28;20462;-80
2022/03/05 06:06:40;;;;;;;30.27;20.83;;;;;;;;;;5013627;28;20042;-80
2022/03/05 06:09:06;;;;;;;33.20;21.80;;;;;;;;;;5013750;28;20030;-80
2022/03/05 06:11:33;;;;;;;29.50;22.00;;;;;;;;;;5011573;28;20030;-79
2022/03/05 06:13:59;;;;;;;30.15;21.55;;;;;;;;;;5007513;28;20054;-81
2022/03/05 06:16:25;;;;;;;29.85;20.45;;;;;;;;;;4996305;28;20022;-80
2022/03/05 06:18:51;;;;;;;32.83;20.75;;;;;;;;;;5013489;28;20140;-80
2022/03/05 06:21:17;;;;;;;30.50;21.55;;;;;;;;;;5013638;28;20472;-80
2022/03/05 06:23:44;;;;;;;33.78;21.05;;;;;;;;;;5013512;28;20029;-80
2022/03/05 06:26:10;;;;;;;25.63;19.83;;;;;;;;;;5013252;28;20022;-80
2022/03/05 06:28:36;;;;;;;32.33;21.27;;;;;;;;;;5012094;28;20030;-80
2022/03/05 06:31:05;;;;;;;36.63;22.73;;;;;;;;;;5009959;28;20056;-80
2022/03/05 06:33:31;;;;;;;46.92;29.45;;;;;;;;;;5010324;28;20108;-82
2022/03/05 06:35:58;;;;;;;35.42;23.67;;;;;;;;;;4987275;28;20096;-79
2022/03/05 06:38:24;;;;;;;33.03;23.27;;;;;;;;;;4986758;28;20092;-79
2022/03/05 06:40:50;;;;;;;31.75;21.15;;;;;;;;;;5011488;28;20033;-80
2022/03/05 06:43:16;;;;;;;29.75;20.83;;;;;;;;;;5009020;28;20037;-81
2022/03/05 06:45:43;;;;;;;28.63;20.52;;;;;;;;;;5011722;28;20038;-80
2022/03/05 06:48:09;;;;;;;30.20;21.88;;;;;;;;;;5012589;28;20026;-82
2022/03/05 06:50:36;;;;;;;33.53;23.13;;;;;;;;;;5013191;28;20040;-82
2022/03/05 06:53:02;;;;;;;31.65;20.92;;;;;;;;;;4989812;28;20493;-80
2022/03/05 06:55:28;;;;;;;34.08;23.35;;;;;;;;;;5012492;28;20113;-81
2022/03/05 06:57:54;;;;;;;33.03;21.23;;;;;;;;;;5013706;28;20026;-80
2022/03/05 07:00:21;;;;;;;28.50;20.48;;;;;;;;;;5015582;28;20026;-82
2022/03/05 07:02:47;;;;;;;34.70;23.90;;;;;;;;;;5011633;28;20064;-80
2022/03/05 07:05:14;;;;;;;32.67;22.80;;;;;;;;;;5012266;28;20042;-82
2022/03/05 07:07:40;;;;;;;28.40;22.10;;;;;;;;;;4988544;28;20385;-80
2022/03/05 07:10:07;;;;;;;32.60;22.48;;;;;;;;;;4987864;28;20481;-81
2022/03/05 07:12:36;;;;;;;32.15;22.25;;;;;;;;;;5001928;28;20496;-80
2022/03/05 07:15:02;;;;;;;30.88;20.73;;;;;;;;;;5005202;28;20100;-80
2022/03/05 07:17:29;;;;;;;27.77;20.92;;;;;;;;;;5011756;28;20029;-82
2022/03/05 07:19:55;;;;;;;33.97;24.40;;;;;;;;;;5010685;28;20080;-78
2022/03/05 07:22:21;;;;;;;34.60;22.35;;;;;;;;;;5003395;28;20029;-82
2022/03/05 07:24:47;;;;;;;31.77;21.63;;;;;;;;;;5008427;28;20037;-79
2022/03/05 07:27:13;;;;;;;35.58;25.05;;;;;;;;;;5009457;28;20038;-79
2022/03/05 07:29:41;;;;;;;33.42;23.70;;;;;;;;;;5011328;28;20030;-79
2022/03/05 07:32:08;;;;;;;38.30;25.60;;;;;;;;;;5008777;28;20124;-80
2022/03/05 07:34:36;;;;;;;37.08;24.38;;;;;;;;;;5011313;28;20026;-85
2022/03/05 07:37:03;;;;;;;35.08;25.55;;;;;;;;;;5013132;28;20381;-82
2022/03/05 07:39:29;;;;;;;35.88;25.10;;;;;;;;;;4987281;28;20422;-81
2022/03/05 07:41:55;;;;;;;34.75;23.95;;;;;;;;;;4990880;28;20026;-81
2022/03/05 07:44:21;;;;;;;39.95;26.73;;;;;;;;;;5011602;28;20033;-82
2022/03/05 07:46:47;;;;;;;40.17;29.30;;;;;;;;;;4993601;28;20405;-80
2022/03/05 07:49:13;;;;;;;33.92;24.30;;;;;;;;;;4996331;28;20033;-81
2022/03/05 07:51:40;;;;;;;33.65;24.20;;;;;;;;;;5011832;28;20022;-79
2022/03/05 07:54:06;;;;;;;37.25;26.23;;;;;;;;;;5011306;28;20022;-82
2022/03/05 07:56:32;;;;;;;38.55;25.02;;;;;;;;;;4991345;28;20068;-81
2022/03/05 07:58:58;;;;;;;37.85;26.70;;;;;;;;;;5011410;28;20025;-81
2022/03/05 08:01:27;;;;;;;38.70;25.17;;;;;;;;;;5012337;28;20022;-80
2022/03/05 08:03:54;;;;;;;40.67;28.50;;;;;;;;;;5012160;28;20029;-80
2022/03/05 08:06:20;;;;;;;35.72;25.35;;;;;;;;;;5012217;28;20037;-80
2022/03/05 08:08:46;;;;;;;35.28;23.30;;;;;;;;;;5012411;28;20481;-83
2022/03/05 08:11:12;;;;;;;50.47;31.40;;;;;;;;;;5012348;28;20041;-83
2022/03/05 08:13:38;;;;;;;37.40;25.75;;;;;;;;;;5014147;28;20092;-82
2022/03/05 08:16:04;;;;;;;41.20;27.38;;;;;;;;;;5015841;28;20030;-82
2022/03/05 08:18:30;;;;;;;42.20;27.65;;;;;;;;;;4998450;28;20026;-83
2022/03/05 08:20:57;;;;;;;40.10;28.30;;;;;;;;;;5015829;28;20049;-81
2022/03/05 08:23:23;;;;;;;42.15;28.80;;;;;;;;;;5015622;28;20097;-81
2022/03/05 08:25:49;;;;;;;39.38;26.95;;;;;;;;;;5015695;28;20029;-82
2022/03/05 08:28:17;;;;;;;45.22;29.08;;;;;;;;;;5015540;28;20028;-81
2022/03/05 08:30:44;;;;;;;55.75;35.35;;;;;;;;;;5015946;28;20029;-82
2022/03/05 08:33:10;;;;;;;46.08;32.72;;;;;;;;;;5015257;28;20528;-81
2022/03/05 08:35:36;;;;;;;40.28;28.52;;;;;;;;;;5015850;28;20029;-84
2022/03/05 08:38:02;;;;;;;34.42;25.02;;;;;;;;;;5014627;28;20432;-81
2022/03/05 08:40:28;;;;;;;33.97;23.88;;;;;;;;;;4997443;28;20041;-82
2022/03/05 08:42:54;;;;;;;33.45;23.20;;;;;;;;;;5015643;28;20496;-80
2022/03/05 08:45:20;;;;;;;33.05;24.70;;;;;;;;;;5015539;28;20033;-80
2022/03/05 08:47:47;;;;;;;39.22;25.50;;;;;;;;;;5015779;28;20022;-83
2022/03/05 08:50:14;;;;;;;30.73;22.40;;;;;;;;;;5015330;28;20114;-85
2022/03/05 08:52:41;;;;;;;29.75;22.27;;;;;;;;;;5015378;28;20381;-82
2022/03/05 08:55:08;;;;;;;30.95;21.63;;;;;;;;;;5015389;28;20022;-82
2022/03/05 08:57:35;;;;;;;30.23;22.30;;;;;;;;;;4996257;28;20388;-82
2022/03/05 09:00:01;;;;;;;29.15;21.38;;;;;;;;;;5014358;28;20063;-84
2022/03/05 09:02:27;;;;;;;29.63;20.58;;;;;;;;;;5014383;28;20021;-81
2022/03/05 09:04:53;;;;;;;25.90;20.85;;;;;;;;;;5028612;28;20026;-84
2022/03/05 09:07:19;;;;;;;26.08;19.67;;;;;;;;;;5035101;28;20021;-84
2022/03/05 09:09:46;;;;;;;26.02;18.92;;;;;;;;;;5018972;28;20059;-83
2022/03/05 09:12:12;;;;;;;25.90;16.25;;;;;;;;;;4997181;28;20025;-81
2022/03/05 09:14:38;;;;;;;22.40;16.27;;;;;;;;;;4997495;28;20144;-82
2022/03/05 09:17:04;;;;;;;24.92;18.25;;;;;;;;;;4997617;28;20026;-81
2022/03/05 09:19:31;;;;;;;29.17;18.38;;;;;;;;;;5014485;28;20376;-83
2022/03/05 09:21:57;;;;;;;25.23;18.45;;;;;;;;;;5014959;28;20366;-81
2022/03/05 09:24:23;;;;;;;26.10;18.05;;;;;;;;;;5014299;28;20021;-83
2022/03/05 09:26:49;;;;;;;21.25;15.85;;;;;;;;;;5014712;28;20036;-83
2022/03/05 09:29:16;;;;;;;25.88;18.25;;;;;;;;;;4996771;28;20034;-83
2022/03/05 09:31:42;;;;;;;21.00;15.50;;;;;;;;;;5014250;28;20061;-82
2022/03/05 09:34:28;;;;;;;22.48;15.38;;;;;;;;;;5014484;28;20548;-82
2022/03/05 09:36:54;;;;;;;22.35;16.52;;;;;;;;;;5014565;28;20096;-82
2022/03/05 09:39:21;;;;;;;20.35;16.55;;;;;;;;;;5014041;28;20056;-84
2022/03/05 09:41:47;;;;;;;21.88;15.40;;;;;;;;;;5014378;28;20022;-82
2022/03/05 09:44:13;;;;;;;18.92;15.13;;;;;;;;;;5014475;28;20029;-83
2022/03/05 09:46:41;;;;;;;19.65;15.13;;;;;;;;;;5013874;28;20030;-82
2022/03/05 09:49:08;;;;;;;16.98;15.18;;;;;;;;;;5014438;28;20499;-81
2022/03/05 09:51:35;;;;;;;23.63;17.05;;;;;;;;;;5014165;28;20129;-81
2022/03/05 09:54:02;;;;;;;22.85;18.00;;;;;;;;;;5014003;28;20032;-81
2022/03/05 09:56:28;;;;;;;24.27;17.98;;;;;;;;;;5014096;28;20033;-81
2022/03/05 09:58:55;;;;;;;23.38;17.58;;;;;;;;;;5014373;28;20105;-82
2022/03/05 10:01:23;;;;;;;18.27;14.98;;;;;;;;;;5014054;28;20050;-82
2022/03/05 10:03:53;;;;;;;20.00;14.80;;;;;;;;;;5014107;28;20028;-82
2022/03/05 10:06:19;;;;;;;19.27;15.43;;;;;;;;;;5014078;28;20034;-81
2022/03/05 10:08:46;;;;;;;19.73;15.98;;;;;;;;;;5013333;28;20025;-81
2022/03/05 10:11:12;;;;;;;19.40;15.73;;;;;;;;;;5013841;28;20038;-82
2022/03/05 10:13:40;;;;;;;20.38;15.65;;;;;;;;;;5014113;28;20046;-82
2022/03/05 10:16:07;;;;;;;19.05;15.80;;;;;;;;;;5014489;28;20113;-81
2022/03/05 10:18:37;;;;;;;25.50;17.95;;;;;;;;;;5013990;28;20029;-80
2022/03/05 10:21:07;;;;;;;24.45;17.50;;;;;;;;;;5014240;28;20018;-82
2022/03/05 10:23:38;;;;;;;22.70;16.55;;;;;;;;;;5014015;28;20049;-82
2022/03/05 10:26:06;;;;;;;22.80;17.02;;;;;;;;;;5013804;28;20117;-79
2022/03/05 10:28:32;;;;;;;20.30;16.15;;;;;;;;;;5013379;28;20481;-79
2022/03/05 10:31:07;;;;;;;19.63;16.42;;;;;;;;;;5013427;28;20377;-81
2022/03/05 10:33:54;;;;;;;21.50;15.57;;;;;;;;;;5013316;28;20112;-82
2022/03/05 10:36:24;;;;;;;19.65;16.10;;;;;;;;;;5013312;28;20041;-82
2022/03/05 10:38:57;;;;;;;19.52;15.88;;;;;;;;;;5012791;28;20681;-81
2022/03/05 10:41:42;;;;;;;20.90;16.42;;;;;;;;;;5013605;28;20070;-81
2022/03/05 10:44:08;;;;;;;20.98;16.48;;;;;;;;;;5013398;28;20675;-81
2022/03/05 10:46:38;;;;;;;22.55;16.85;;;;;;;;;;5012991;28;20437;-81
2022/03/05 10:49:23;;;;;;;20.40;15.73;;;;;;;;;;5013229;28;20061;-81
2022/03/05 10:52:05;;;;;;;34.90;27.35;;;;;;;;;;4995191;28;20032;-82
2022/03/05 10:54:50;;;;;;;44.30;32.70;;;;;;;;;;4995581;28;20065;-81
2022/03/05 10:57:22;;;;;;;24.83;19.02;;;;;;;;;;5013293;28;20097;-84
2022/03/05 10:59:50;;;;;;;22.75;16.75;;;;;;;;;;5012794;28;20026;-82
2022/03/05 11:02:17;;;;;;;20.50;16.80;;;;;;;;;;5013138;28;20026;-81
2022/03/05 11:04:44;;;;;;;21.00;15.75;;;;;;;;;;5012988;28;20477;-81
2022/03/05 11:07:10;;;;;;;20.58;16.00;;;;;;;;;;5012937;28;20034;-81
2022/03/05 11:09:37;;;;;;;21.98;16.55;;;;;;;;;;5012519;28;20540;-80
2022/03/05 11:12:04;;;;;;;19.98;16.13;;;;;;;;;;4995024;28;20036;-80
2022/03/05 11:14:30;;;;;;;17.40;15.35;;;;;;;;;;5012642;28;20490;-80
2022/03/05 11:16:57;;;;;;;22.80;16.42;;;;;;;;;;5012753;28;20065;-80
2022/03/05 11:19:24;;;;;;;22.63;17.05;;;;;;;;;;4995493;28;20118;-80
2022/03/05 11:21:50;;;;;;;78.90;43.47;;;;;;;;;;5012495;28;20473;-80
2022/03/05 11:24:18;;;;;;;71.05;43.38;;;;;;;;;;4995112;28;20026;-80
2022/03/05 11:26:47;;;;;;;31.23;21.50;;;;;;;;;;5011619;28;20033;-81
2022/03/05 11:29:16;;;;;;;22.42;18.25;;;;;;;;;;4995272;28;20041;-81
2022/03/05 11:31:42;;;;;;;24.83;16.23;;;;;;;;;;5012757;28;20497;-81
2022/03/05 11:34:23;;;;;;;22.08;17.95;;;;;;;;;;5012434;28;20033;-81
2022/03/05 11:36:50;;;;;;;22.42;18.50;;;;;;;;;;5012457;28;20050;-81
2022/03/05 11:39:36;;;;;;;23.50;17.77;;;;;;;;;;5012340;28;20029;-81
2022/03/05 11:42:03;;;;;;;23.15;18.65;;;;;;;;;;5011985;28;20084;-81
2022/03/05 11:44:31;;;;;;;25.63;19.50;;;;;;;;;;5012774;28;20493;-80
2022/03/05 11:47:15;;;;;;;26.10;19.30;;;;;;;;;;4994620;28;20029;-80
2022/03/05 11:49:59;;;;;;;26.90;19.80;;;;;;;;;;5016675;28;20018;-81
2022/03/05 11:52:41;;;;;;;24.20;20.58;;;;;;;;;;5016231;28;20042;-80
2022/03/05 11:55:25;;;;;;;34.00;23.17;;;;;;;;;;5016235;28;20037;-80
2022/03/05 11:57:51;;;;;;;33.05;25.30;;;;;;;;;;5016274;28;20477;-81
2022/03/05 12:00:36;;;;;;;24.73;20.52;;;;;;;;;;5016168;28;20061;-81
2022/03/05 12:03:03;;;;;;;23.05;19.70;;;;;;;;;;5016208;28;20025;-81
2022/03/05 12:05:48;;;;;;;29.77;22.38;;;;;;;;;;5015980;28;20037;-81
2022/03/05 12:08:14;;;;;;;26.23;18.08;;;;;;;;;;5012811;28;20041;-80
2022/03/05 12:10:41;;;;;;;30.48;21.63;;;;;;;;;;5015896;28;20026;-82
2022/03/05 12:13:08;;;;;;;23.83;18.80;;;;;;;;;;4998451;28;20054;-81
2022/03/05 12:15:44;;;;;;;25.27;18.55;;;;;;;;;;4998455;28;20022;-82
2022/03/05 12:18:12;;;;;;;47.03;32.88;;;;;;;;;;5015930;28;20018;-82
2022/03/05 12:20:39;;;;;;;30.88;22.67;;;;;;;;;;5016050;28;20397;-81
2022/03/05 12:23:06;;;;;;;25.30;20.13;;;;;;;;;;5015886;28;20018;-81
2022/03/05 12:25:34;;;;;;;25.70;19.70;;;;;;;;;;5015474;28;20033;-79
2022/03/05 12:28:00;;;;;;;22.83;19.48;;;;;;;;;;5015482;28;20029;-79
2022/03/05 12:30:34;;;;;;;24.00;18.23;;;;;;;;;;5016045;28;20106;-80
2022/03/05 12:33:05;;;;;;;21.75;17.08;;;;;;;;;;5015749;28;20096;-78
2022/03/05 12:35:31;;;;;;;21.83;17.40;;;;;;;;;;5015488;28;20022;-81
2022/03/05 12:37:57;;;;;;;25.10;18.33;;;;;;;;;;5015862;28;20080;-81
2022/03/05 12:40:24;;;;;;;21.38;18.02;;;;;;;;;;4997796;28;20052;-81
2022/03/05 12:42:51;;;;;;;21.50;17.42;;;;;;;;;;4998116;28;20350;-80
2022/03/05 12:45:24;;;;;;;21.65;17.95;;;;;;;;;;5015061;28;20401;-80
2022/03/05 12:47:51;;;;;;;24.65;18.55;;;;;;;;;;5015212;28;20095;-80
2022/03/05 12:50:23;;;;;;;22.63;17.52;;;;;;;;;;5015011;28;20040;-80
2022/03/05 12:53:07;;;;;;;19.45;16.45;;;;;;;;;;5015402;28;20022;-81
2022/03/05 12:55:35;;;;;;;22.83;17.58;;;;;;;;;;5014735;28;20022;-80
2022/03/05 12:58:13;;;;;;;22.67;19.00;;;;;;;;;;5015036;28;20022;-81
2022/03/05 13:00:40;;;;;;;22.58;18.23;;;;;;;;;;5015322;28;20101;-80
2022/03/05 13:03:07;;;;;;;21.25;18.42;;;;;;;;;;5015011;28;20026;-80
2022/03/05 13:05:39;;;;;;;23.27;18.27;;;;;;;;;;5014457;28;20072;-81
2022/03/05 13:08:34;;;;;;;24.67;18.90;;;;;;;;;;5015104;28;20202;-81
2022/03/05 13:11:00;;;;;;;;;;;;;;;;;;4938679;28;20147;-81
2022/03/05 13:13:42;;;;;;;27.90;20.60;;;;;;;;;;4953797;28;20696;-81
2022/03/05 13:16:56;;;;;;;27.27;20.98;;;;;;;;;;4954383;28;20047;-81
2022/03/05 13:19:27;;;;;;;25.85;21.17;;;;;;;;;;4901728;29;20041;-81
2022/03/05 13:21:53;;;;;;;27.38;21.65;;;;;;;;;;4982816;28;20034;-79
2022/03/05 13:24:21;;;;;;;48.28;33.90;;;;;;;;;;5013716;28;20034;-79
2022/03/05 13:27:06;;;;;;;28.60;22.63;;;;;;;;;;5014641;28;20030;-80
2022/03/05 13:29:40;;;;;;;;;;;;;;;;;;5014680;28;20042;-81
2022/03/05 13:32:07;;;;;;;43.28;32.00;;;;;;;;;;5014762;28;19912;-80
2022/03/05 13:34:39;;;;;;;46.67;33.80;;;;;;;;;;5014017;28;20034;-80
2022/03/05 13:37:11;;;;;;;23.25;20.45;;;;;;;;;;5014654;28;20029;-80
2022/03/05 13:39:43;;;;;;;61.85;41.83;;;;;;;;;;5014118;28;20033;-80
2022/03/05 13:42:14;;;;;;;41.63;32.40;;;;;;;;;;5014253;28;20381;-80
2022/03/05 13:44:41;;;;;;;29.60;24.60;;;;;;;;;;5014232;28;20029;-80
2022/03/05 13:47:08;;;;;;;30.92;25.13;;;;;;;;;;5014430;28;20474;-79
2022/03/05 13:49:34;;;;;;;29.05;23.05;;;;;;;;;;5013793;28;20030;-79
2022/03/05 13:52:02;;;;;;;27.10;21.95;;;;;;;;;;5014552;28;20072;-79
2022/03/05 13:54:54;;;;;;;27.10;21.77;;;;;;;;;;5013904;28;20022;-79
2022/03/05 13:57:31;;;;;;;28.58;22.48;;;;;;;;;;5011933;28;20042;-80
2022/03/05 14:00:06;;;;;;;32.17;24.75;;;;;;;;;;5014205;28;20018;-80
2022/03/05 14:02:32;;;;;;;85.00;56.47;;;;;;;;;;4996385;28;20117;-81
2022/03/05 14:04:59;;;;;;;75.10;52.50;;;;;;;;;;5013565;28;20482;-81
2022/03/05 14:07:26;;;;;;;67.13;47.63;;;;;;;;;;5013842;28;20041;-80
2022/03/05 14:09:52;;;;;;;35.17;25.30;;;;;;;;;;4996172;28;20101;-81
2022/03/05 14:12:19;;;;;;;34.97;27.88;;;;;;;;;;5013247;28;20037;-79
2022/03/05 14:14:51;;;;;;;38.72;29.42;;;;;;;;;;5013487;28;20045;-78
2022/03/05 14:17:36;;;;;;;37.42;28.77;;;;;;;;;;5013388;28;20400;-79
2022/03/05 14:20:21;;;;;;;35.35;26.63;;;;;;;;;;5013285;28;20092;-80
2022/03/05 14:22:47;;;;;;;34.55;26.05;;;;;;;;;;5013294;28;20022;-79
2022/03/05 14:25:18;;;;;;;34.85;24.70;;;;;;;;;;5013486;28;20035;-80
2022/03/05 14:27:45;;;;;;;32.42;25.95;;;;;;;;;;5013303;28;20432;-80